sensor_id;sensor_type;location;lat;lon;timestamp;P1;durP1;ratioP1;P2;durP2;ratioP2
17917;SDS011;9084;50.956;3.106;2024-02-28T00:02:06;5.27;;;4.47;;
17917;SDS011;9084;50.956;3.106;2024-02-28T00:04:32;5.90;;;4.43;;
17917;SDS011;9084;50.956;3.106;2024-02-28T00:06:57;7.80;;;4.73;;
17917;SDS011;9084;50.956;3.106;2024-02-28T00:09:23;4.90;;;4.40;;
17917;SDS011;9084;50.956;3.106;2024-02-28T00:11:49;5.83;;;4.33;;
17917;SDS011;9084;50.956;3.106;2024-02-28T00:14:14;7.13;;;4.53;;
17917;SDS011;9084;50.956;3.106;2024-02-28T00:16:43;5.57;;;4.13;;
17917;SDS011;9084;50.956;3.106;2024-02-28T00:19:12;5.10;;;4.20;;
17917;SDS011;9084;50.956;3.106;2024-02-28T00:21:39;4.97;;;4.47;;
17917;SDS011;9084;50.956;3.106;2024-02-28T00:24:05;5.63;;;5.03;;
17917;SDS011;9084;50.956;3.106;2024-02-28T00:26:32;4.83;;;4.33;;
17917;SDS011;9084;50.956;3.106;2024-02-28T00:28:57;7.60;;;4.20;;
17917;SDS011;9084;50.956;3.106;2024-02-28T00:31:23;5.77;;;4.50;;
17917;SDS011;9084;50.956;3.106;2024-02-28T00:33:49;5.37;;;4.53;;
17917;SDS011;9084;50.956;3.106;2024-02-28T00:36:14;5.53;;;5.03;;
17917;SDS011;9084;50.956;3.106;2024-02-28T00:38:41;6.10;;;5.37;;
17917;SDS011;9084;50.956;3.106;2024-02-28T00:41:09;5.40;;;4.90;;
17917;SDS011;9084;50.956;3.106;2024-02-28T00:43:34;5.23;;;4.73;;
17917;SDS011;9084;50.956;3.106;2024-02-28T00:46:00;8.10;;;4.97;;
17917;SDS011;9084;50.956;3.106;2024-02-28T00:48:26;7.50;;;5.77;;
17917;SDS011;9084;50.956;3.106;2024-02-28T00:50:54;5.13;;;4.70;;
17917;SDS011;9084;50.956;3.106;2024-02-28T00:53:22;6.03;;;5.43;;
17917;SDS011;9084;50.956;3.106;2024-02-28T00:55:50;6.70;;;4.93;;
17917;SDS011;9084;50.956;3.106;2024-02-28T00:58:16;5.40;;;4.47;;
17917;SDS011;9084;50.956;3.106;2024-02-28T01:00:44;6.83;;;4.60;;
17917;SDS011;9084;50.956;3.106;2024-02-28T01:03:10;4.87;;;4.40;;
17917;SDS011;9084;50.956;3.106;2024-02-28T01:05:38;7.23;;;4.97;;
17917;SDS011;9084;50.956;3.106;2024-02-28T01:08:04;5.63;;;5.00;;
17917;SDS011;9084;50.956;3.106;2024-02-28T01:10:30;5.17;;;4.53;;
17917;SDS011;9084;50.956;3.106;2024-02-28T01:12:56;6.33;;;5.13;;
17917;SDS011;9084;50.956;3.106;2024-02-28T01:15:22;5.90;;;5.33;;
17917;SDS011;9084;50.956;3.106;2024-02-28T01:17:47;5.20;;;4.73;;
17917;SDS011;9084;50.956;3.106;2024-02-28T01:20:13;6.23;;;4.80;;
17917;SDS011;9084;50.956;3.106;2024-02-28T01:22:39;6.23;;;4.77;;
17917;SDS011;9084;50.956;3.106;2024-02-28T01:25:05;7.30;;;5.83;;
17917;SDS011;9084;50.956;3.106;2024-02-28T01:27:33;8.47;;;5.50;;
17917;SDS011;9084;50.956;3.106;2024-02-28T01:30:00;5.70;;;5.17;;
17917;SDS011;9084;50.956;3.106;2024-02-28T01:32:26;6.43;;;5.23;;
17917;SDS011;9084;50.956;3.106;2024-02-28T01:34:54;6.57;;;5.10;;
17917;SDS011;9084;50.956;3.106;2024-02-28T01:37:19;6.00;;;5.10;;
17917;SDS011;9084;50.956;3.106;2024-02-28T01:39:45;5.97;;;4.70;;
17917;SDS011;9084;50.956;3.106;2024-02-28T01:42:10;6.23;;;5.23;;
17917;SDS011;9084;50.956;3.106;2024-02-28T01:44:38;5.83;;;5.23;;
17917;SDS011;9084;50.956;3.106;2024-02-28T01:47:08;5.40;;;4.90;;
17917;SDS011;9084;50.956;3.106;2024-02-28T01:49:34;7.73;;;4.77;;
17917;SDS011;9084;50.956;3.106;2024-02-28T01:52:02;5.60;;;5.00;;
17917;SDS011;9084;50.956;3.106;2024-02-28T01:54:29;6.77;;;6.13;;
17917;SDS011;9084;50.956;3.106;2024-02-28T01:56:59;6.13;;;5.53;;
17917;SDS011;9084;50.956;3.106;2024-02-28T01:59:25;7.73;;;5.40;;
17917;SDS011;9084;50.956;3.106;2024-02-28T02:01:52;6.73;;;5.00;;
17917;SDS011;9084;50.956;3.106;2024-02-28T02:04:20;8.30;;;5.47;;
17917;SDS011;9084;50.956;3.106;2024-02-28T02:06:47;5.93;;;5.33;;
17917;SDS011;9084;50.956;3.106;2024-02-28T02:09:16;7.17;;;6.17;;
17917;SDS011;9084;50.956;3.106;2024-02-28T02:11:42;6.60;;;6.00;;
17917;SDS011;9084;50.956;3.106;2024-02-28T02:14:08;7.40;;;6.07;;
17917;SDS011;9084;50.956;3.106;2024-02-28T02:16:33;7.23;;;6.50;;
17917;SDS011;9084;50.956;3.106;2024-02-28T02:18:59;6.10;;;5.50;;
17917;SDS011;9084;50.956;3.106;2024-02-28T02:21:28;6.77;;;5.50;;
17917;SDS011;9084;50.956;3.106;2024-02-28T02:23:58;6.97;;;5.93;;
17917;SDS011;9084;50.956;3.106;2024-02-28T02:26:28;8.43;;;6.07;;
17917;SDS011;9084;50.956;3.106;2024-02-28T02:28:56;6.27;;;5.70;;
17917;SDS011;9084;50.956;3.106;2024-02-28T02:31:22;7.27;;;5.33;;
17917;SDS011;9084;50.956;3.106;2024-02-28T02:33:48;6.03;;;5.47;;
17917;SDS011;9084;50.956;3.106;2024-02-28T02:36:13;6.60;;;5.97;;
17917;SDS011;9084;50.956;3.106;2024-02-28T02:38:39;7.17;;;6.33;;
17917;SDS011;9084;50.956;3.106;2024-02-28T02:41:05;7.30;;;5.87;;
17917;SDS011;9084;50.956;3.106;2024-02-28T02:43:33;6.47;;;5.87;;
17917;SDS011;9084;50.956;3.106;2024-02-28T02:45:58;6.53;;;5.77;;
17917;SDS011;9084;50.956;3.106;2024-02-28T02:48:26;6.40;;;5.63;;
17917;SDS011;9084;50.956;3.106;2024-02-28T02:50:52;6.70;;;6.10;;
17917;SDS011;9084;50.956;3.106;2024-02-28T02:53:18;6.63;;;5.60;;
17917;SDS011;9084;50.956;3.106;2024-02-28T02:55:44;6.47;;;5.87;;
17917;SDS011;9084;50.956;3.106;2024-02-28T02:58:10;7.50;;;6.20;;
17917;SDS011;9084;50.956;3.106;2024-02-28T03:00:35;7.20;;;6.43;;
17917;SDS011;9084;50.956;3.106;2024-02-28T03:03:03;7.40;;;6.17;;
17917;SDS011;9084;50.956;3.106;2024-02-28T03:05:30;6.63;;;6.13;;
17917;SDS011;9084;50.956;3.106;2024-02-28T03:07:56;8.97;;;6.20;;
17917;SDS011;9084;50.956;3.106;2024-02-28T03:10:21;6.30;;;5.70;;
17917;SDS011;9084;50.956;3.106;2024-02-28T03:12:47;6.47;;;5.83;;
17917;SDS011;9084;50.956;3.106;2024-02-28T03:15:13;9.53;;;6.47;;
17917;SDS011;9084;50.956;3.106;2024-02-28T03:17:41;7.10;;;5.63;;
17917;SDS011;9084;50.956;3.106;2024-02-28T03:20:07;7.80;;;5.50;;
17917;SDS011;9084;50.956;3.106;2024-02-28T03:22:33;8.17;;;5.53;;
17917;SDS011;9084;50.956;3.106;2024-02-28T03:24:58;9.50;;;5.53;;
17917;SDS011;9084;50.956;3.106;2024-02-28T03:27:24;5.57;;;5.03;;
17917;SDS011;9084;50.956;3.106;2024-02-28T03:29:50;6.53;;;5.80;;
17917;SDS011;9084;50.956;3.106;2024-02-28T03:32:17;6.90;;;5.50;;
17917;SDS011;9084;50.956;3.106;2024-02-28T03:34:43;6.67;;;6.07;;
17917;SDS011;9084;50.956;3.106;2024-02-28T03:37:08;8.17;;;5.27;;
17917;SDS011;9084;50.956;3.106;2024-02-28T03:39:34;6.83;;;5.30;;
17917;SDS011;9084;50.956;3.106;2024-02-28T03:42:00;6.53;;;5.53;;
17917;SDS011;9084;50.956;3.106;2024-02-28T03:44:25;5.67;;;5.17;;
17917;SDS011;9084;50.956;3.106;2024-02-28T03:46:51;7.50;;;5.50;;
17917;SDS011;9084;50.956;3.106;2024-02-28T03:49:16;8.67;;;5.03;;
17917;SDS011;9084;50.956;3.106;2024-02-28T03:51:42;7.00;;;5.50;;
17917;SDS011;9084;50.956;3.106;2024-02-28T03:54:08;5.07;;;4.67;;
17917;SDS011;9084;50.956;3.106;2024-02-28T03:56:37;7.17;;;5.20;;
17917;SDS011;9084;50.956;3.106;2024-02-28T03:59:02;7.03;;;4.57;;
17917;SDS011;9084;50.956;3.106;2024-02-28T04:01:29;7.73;;;5.17;;
17917;SDS011;9084;50.956;3.106;2024-02-28T04:03:55;5.40;;;4.30;;
17917;SDS011;9084;50.956;3.106;2024-02-28T04:06:21;5.50;;;5.00;;
17917;SDS011;9084;50.956;3.106;2024-02-28T04:08:46;7.43;;;5.80;;
17917;SDS011;9084;50.956;3.106;2024-02-28T04:11:12;6.47;;;4.77;;
17917;SDS011;9084;50.956;3.106;2024-02-28T04:13:38;5.60;;;4.90;;
17917;SDS011;9084;50.956;3.106;2024-02-28T04:16:07;9.63;;;5.50;;
17917;SDS011;9084;50.956;3.106;2024-02-28T04:18:34;7.10;;;5.43;;
17917;SDS011;9084;50.956;3.106;2024-02-28T04:21:02;5.97;;;5.30;;
17917;SDS011;9084;50.956;3.106;2024-02-28T04:23:28;5.67;;;5.17;;
17917;SDS011;9084;50.956;3.106;2024-02-28T04:25:54;6.63;;;5.37;;
17917;SDS011;9084;50.956;3.106;2024-02-28T04:28:21;5.87;;;5.27;;
17917;SDS011;9084;50.956;3.106;2024-02-28T04:30:47;8.30;;;5.40;;
17917;SDS011;9084;50.956;3.106;2024-02-28T04:33:16;5.27;;;4.77;;
17917;SDS011;9084;50.956;3.106;2024-02-28T04:35:44;5.70;;;5.17;;
17917;SDS011;9084;50.956;3.106;2024-02-28T04:38:10;6.23;;;4.43;;
17917;SDS011;9084;50.956;3.106;2024-02-28T04:40:35;8.43;;;5.00;;
17917;SDS011;9084;50.956;3.106;2024-02-28T04:43:01;6.90;;;4.83;;
17917;SDS011;9084;50.956;3.106;2024-02-28T04:45:27;7.03;;;4.60;;
17917;SDS011;9084;50.956;3.106;2024-02-28T04:47:53;7.60;;;4.87;;
17917;SDS011;9084;50.956;3.106;2024-02-28T04:50:20;6.60;;;4.93;;
17917;SDS011;9084;50.956;3.106;2024-02-28T04:52:48;4.67;;;4.03;;
17917;SDS011;9084;50.956;3.106;2024-02-28T04:55:16;7.40;;;4.03;;
17917;SDS011;9084;50.956;3.106;2024-02-28T04:57:42;7.93;;;5.07;;
17917;SDS011;9084;50.956;3.106;2024-02-28T05:00:07;6.00;;;4.63;;
17917;SDS011;9084;50.956;3.106;2024-02-28T05:02:33;4.90;;;4.00;;
17917;SDS011;9084;50.956;3.106;2024-02-28T05:04:59;5.83;;;3.70;;
17917;SDS011;9084;50.956;3.106;2024-02-28T05:07:27;5.63;;;4.83;;
17917;SDS011;9084;50.956;3.106;2024-02-28T05:09:53;4.47;;;4.00;;
17917;SDS011;9084;50.956;3.106;2024-02-28T05:12:19;6.00;;;4.57;;
17917;SDS011;9084;50.956;3.106;2024-02-28T05:14:44;5.80;;;4.30;;
17917;SDS011;9084;50.956;3.106;2024-02-28T05:17:12;6.20;;;3.83;;
17917;SDS011;9084;50.956;3.106;2024-02-28T05:19:41;6.33;;;3.97;;
17917;SDS011;9084;50.956;3.106;2024-02-28T05:22:07;5.60;;;4.30;;
17917;SDS011;9084;50.956;3.106;2024-02-28T05:24:34;4.30;;;3.90;;
17917;SDS011;9084;50.956;3.106;2024-02-28T05:27:05;5.97;;;4.40;;
17917;SDS011;9084;50.956;3.106;2024-02-28T05:29:31;4.20;;;3.80;;
17917;SDS011;9084;50.956;3.106;2024-02-28T05:31:59;5.17;;;4.10;;
17917;SDS011;9084;50.956;3.106;2024-02-28T05:34:24;4.83;;;4.17;;
17917;SDS011;9084;50.956;3.106;2024-02-28T05:36:50;6.83;;;4.80;;
17917;SDS011;9084;50.956;3.106;2024-02-28T05:39:16;5.83;;;4.03;;
17917;SDS011;9084;50.956;3.106;2024-02-28T05:41:44;6.67;;;3.90;;
17917;SDS011;9084;50.956;3.106;2024-02-28T05:44:12;4.40;;;3.37;;
17917;SDS011;9084;50.956;3.106;2024-02-28T05:46:37;5.00;;;3.83;;
17917;SDS011;9084;50.956;3.106;2024-02-28T05:49:05;4.20;;;3.60;;
17917;SDS011;9084;50.956;3.106;2024-02-28T05:51:31;6.03;;;3.67;;
17917;SDS011;9084;50.956;3.106;2024-02-28T05:53:56;5.33;;;3.60;;
17917;SDS011;9084;50.956;3.106;2024-02-28T05:56:22;4.70;;;4.00;;
17917;SDS011;9084;50.956;3.106;2024-02-28T05:58:48;5.50;;;4.20;;
17917;SDS011;9084;50.956;3.106;2024-02-28T06:01:16;5.00;;;3.93;;
17917;SDS011;9084;50.956;3.106;2024-02-28T06:03:45;4.97;;;3.73;;
17917;SDS011;9084;50.956;3.106;2024-02-28T06:06:13;4.93;;;4.05;;
17917;SDS011;9084;50.956;3.106;2024-02-28T06:08:39;5.90;;;3.97;;
17917;SDS011;9084;50.956;3.106;2024-02-28T06:11:08;4.63;;;2.97;;
17917;SDS011;9084;50.956;3.106;2024-02-28T06:13:34;4.97;;;3.30;;
17917;SDS011;9084;50.956;3.106;2024-02-28T06:16:12;6.22;;;4.25;;
17917;SDS011;9084;50.956;3.106;2024-02-28T06:18:39;4.20;;;3.53;;
17917;SDS011;9084;50.956;3.106;2024-02-28T06:21:04;7.33;;;3.20;;
17917;SDS011;9084;50.956;3.106;2024-02-28T06:23:30;6.20;;;3.33;;
17917;SDS011;9084;50.956;3.106;2024-02-28T06:25:56;5.87;;;2.77;;
17917;SDS011;9084;50.956;3.106;2024-02-28T06:28:22;3.90;;;3.10;;
17917;SDS011;9084;50.956;3.106;2024-02-28T06:30:47;8.90;;;3.17;;
17917;SDS011;9084;50.956;3.106;2024-02-28T06:33:18;5.97;;;3.03;;
17917;SDS011;9084;50.956;3.106;2024-02-28T06:35:44;6.83;;;3.60;;
17917;SDS011;9084;50.956;3.106;2024-02-28T06:38:09;3.93;;;3.27;;
17917;SDS011;9084;50.956;3.106;2024-02-28T06:40:35;5.23;;;3.57;;
17917;SDS011;9084;50.956;3.106;2024-02-28T06:43:01;5.07;;;3.57;;
17917;SDS011;9084;50.956;3.106;2024-02-28T06:45:30;3.72;;;3.40;;
17917;SDS011;9084;50.956;3.106;2024-02-28T06:47:57;4.00;;;3.30;;
17917;SDS011;9084;50.956;3.106;2024-02-28T06:50:23;3.60;;;2.97;;
17917;SDS011;9084;50.956;3.106;2024-02-28T06:52:49;6.17;;;3.40;;
17917;SDS011;9084;50.956;3.106;2024-02-28T06:55:21;4.57;;;3.60;;
17917;SDS011;9084;50.956;3.106;2024-02-28T06:57:46;5.30;;;3.50;;
17917;SDS011;9084;50.956;3.106;2024-02-28T07:00:12;4.00;;;3.40;;
17917;SDS011;9084;50.956;3.106;2024-02-28T07:02:39;3.88;;;3.58;;
17917;SDS011;9084;50.956;3.106;2024-02-28T07:05:05;4.17;;;3.50;;
17917;SDS011;9084;50.956;3.106;2024-02-28T07:07:32;6.67;;;3.17;;
17917;SDS011;9084;50.956;3.106;2024-02-28T07:09:58;5.43;;;4.23;;
17917;SDS011;9084;50.956;3.106;2024-02-28T07:12:24;5.07;;;3.33;;
17917;SDS011;9084;50.956;3.106;2024-02-28T07:14:50;5.97;;;3.43;;
17917;SDS011;9084;50.956;3.106;2024-02-28T07:17:16;7.70;;;4.10;;
17917;SDS011;9084;50.956;3.106;2024-02-28T07:19:44;5.83;;;3.90;;
17917;SDS011;9084;50.956;3.106;2024-02-28T07:22:12;4.10;;;3.55;;
17917;SDS011;9084;50.956;3.106;2024-02-28T07:24:37;4.50;;;3.25;;
17917;SDS011;9084;50.956;3.106;2024-02-28T07:27:03;7.40;;;3.70;;
17917;SDS011;9084;50.956;3.106;2024-02-28T07:29:29;5.00;;;4.03;;
17917;SDS011;9084;50.956;3.106;2024-02-28T07:31:57;4.93;;;3.55;;
17917;SDS011;9084;50.956;3.106;2024-02-28T07:34:29;7.00;;;3.70;;
17917;SDS011;9084;50.956;3.106;2024-02-28T07:36:58;4.25;;;2.97;;
17917;SDS011;9084;50.956;3.106;2024-02-28T07:39:24;5.60;;;3.70;;
17917;SDS011;9084;50.956;3.106;2024-02-28T07:41:50;5.20;;;3.80;;
17917;SDS011;9084;50.956;3.106;2024-02-28T07:44:16;3.80;;;3.50;;
17917;SDS011;9084;50.956;3.106;2024-02-28T07:46:42;5.97;;;3.83;;
17917;SDS011;9084;50.956;3.106;2024-02-28T07:49:10;4.28;;;3.55;;
17917;SDS011;9084;50.956;3.106;2024-02-28T07:51:38;4.03;;;3.20;;
17917;SDS011;9084;50.956;3.106;2024-02-28T07:54:06;5.75;;;4.07;;
17917;SDS011;9084;50.956;3.106;2024-02-28T07:56:32;6.43;;;3.47;;
17917;SDS011;9084;50.956;3.106;2024-02-28T07:58:58;6.57;;;3.47;;
17917;SDS011;9084;50.956;3.106;2024-02-28T08:01:23;5.95;;;3.90;;
17917;SDS011;9084;50.956;3.106;2024-02-28T08:03:49;5.53;;;3.58;;
17917;SDS011;9084;50.956;3.106;2024-02-28T08:06:17;7.13;;;3.28;;
17917;SDS011;9084;50.956;3.106;2024-02-28T08:08:45;3.80;;;3.25;;
17917;SDS011;9084;50.956;3.106;2024-02-28T08:11:11;6.03;;;3.70;;
17917;SDS011;9084;50.956;3.106;2024-02-28T08:13:40;4.68;;;3.55;;
17917;SDS011;9084;50.956;3.106;2024-02-28T08:16:05;3.92;;;3.40;;
17917;SDS011;9084;50.956;3.106;2024-02-28T08:18:33;6.90;;;4.20;;
17917;SDS011;9084;50.956;3.106;2024-02-28T08:21:00;4.47;;;3.60;;
17917;SDS011;9084;50.956;3.106;2024-02-28T08:23:27;7.50;;;3.92;;
17917;SDS011;9084;50.956;3.106;2024-02-28T08:25:54;4.47;;;3.67;;
17917;SDS011;9084;50.956;3.106;2024-02-28T08:28:20;6.03;;;4.07;;
17917;SDS011;9084;50.956;3.106;2024-02-28T08:30:49;4.53;;;3.45;;
17917;SDS011;9084;50.956;3.106;2024-02-28T08:33:14;6.00;;;3.53;;
17917;SDS011;9084;50.956;3.106;2024-02-28T08:35:40;5.88;;;3.78;;
17917;SDS011;9084;50.956;3.106;2024-02-28T08:38:08;5.57;;;3.92;;
17917;SDS011;9084;50.956;3.106;2024-02-28T08:40:34;5.70;;;3.65;;
17917;SDS011;9084;50.956;3.106;2024-02-28T08:43:02;4.25;;;3.80;;
17917;SDS011;9084;50.956;3.106;2024-02-28T08:45:27;5.90;;;4.45;;
17917;SDS011;9084;50.956;3.106;2024-02-28T08:47:53;4.97;;;4.57;;
17917;SDS011;9084;50.956;3.106;2024-02-28T08:50:22;5.75;;;4.20;;
17917;SDS011;9084;50.956;3.106;2024-02-28T08:52:48;4.72;;;3.90;;
17917;SDS011;9084;50.956;3.106;2024-02-28T08:55:14;7.25;;;4.10;;
17917;SDS011;9084;50.956;3.106;2024-02-28T08:57:43;5.60;;;4.05;;
17917;SDS011;9084;50.956;3.106;2024-02-28T09:00:09;4.60;;;4.20;;
17917;SDS011;9084;50.956;3.106;2024-02-28T09:02:35;5.43;;;4.93;;
17917;SDS011;9084;50.956;3.106;2024-02-28T09:05:04;4.82;;;4.43;;
17917;SDS011;9084;50.956;3.106;2024-02-28T09:07:30;5.75;;;4.63;;
17917;SDS011;9084;50.956;3.106;2024-02-28T09:09:56;5.22;;;4.60;;
17917;SDS011;9084;50.956;3.106;2024-02-28T09:12:21;6.03;;;4.25;;
17917;SDS011;9084;50.956;3.106;2024-02-28T09:14:51;5.25;;;4.75;;
17917;SDS011;9084;50.956;3.106;2024-02-28T09:17:21;4.47;;;4.10;;
17917;SDS011;9084;50.956;3.106;2024-02-28T09:19:50;5.72;;;4.95;;
17917;SDS011;9084;50.956;3.106;2024-02-28T09:22:16;6.60;;;4.70;;
17917;SDS011;9084;50.956;3.106;2024-02-28T09:24:42;6.72;;;4.90;;
17917;SDS011;9084;50.956;3.106;2024-02-28T09:27:08;5.45;;;4.93;;
17917;SDS011;9084;50.956;3.106;2024-02-28T09:29:33;6.63;;;4.85;;
17917;SDS011;9084;50.956;3.106;2024-02-28T09:31:59;5.95;;;4.50;;
17917;SDS011;9084;50.956;3.106;2024-02-28T09:34:25;5.60;;;5.03;;
17917;SDS011;9084;50.956;3.106;2024-02-28T09:36:50;6.15;;;5.13;;
17917;SDS011;9084;50.956;3.106;2024-02-28T09:39:16;7.00;;;4.75;;
17917;SDS011;9084;50.956;3.106;2024-02-28T09:41:42;5.07;;;4.63;;
17917;SDS011;9084;50.956;3.106;2024-02-28T09:44:08;5.38;;;4.80;;
17917;SDS011;9084;50.956;3.106;2024-02-28T09:46:35;5.43;;;4.55;;
17917;SDS011;9084;50.956;3.106;2024-02-28T09:49:03;5.50;;;4.80;;
17917;SDS011;9084;50.956;3.106;2024-02-28T09:51:33;6.18;;;4.53;;
17917;SDS011;9084;50.956;3.106;2024-02-28T09:54:00;6.28;;;5.10;;
17917;SDS011;9084;50.956;3.106;2024-02-28T09:56:30;5.60;;;5.10;;
17917;SDS011;9084;50.956;3.106;2024-02-28T09:58:58;9.70;;;5.82;;
17917;SDS011;9084;50.956;3.106;2024-02-28T10:01:25;7.20;;;5.50;;
17917;SDS011;9084;50.956;3.106;2024-02-28T10:03:51;5.68;;;5.18;;
17917;SDS011;9084;50.956;3.106;2024-02-28T10:06:21;5.47;;;4.82;;
17917;SDS011;9084;50.956;3.106;2024-02-28T10:08:47;6.32;;;5.05;;
17917;SDS011;9084;50.956;3.106;2024-02-28T10:13:48;4.45;;;4.00;;
17917;SDS011;9084;50.956;3.106;2024-02-28T10:16:14;7.45;;;4.88;;
17917;SDS011;9084;50.956;3.106;2024-02-28T10:18:42;5.50;;;5.00;;
17917;SDS011;9084;50.956;3.106;2024-02-28T10:21:08;6.15;;;4.88;;
17917;SDS011;9084;50.956;3.106;2024-02-28T10:23:35;5.07;;;4.63;;
17917;SDS011;9084;50.956;3.106;2024-02-28T10:26:04;5.70;;;4.82;;
17917;SDS011;9084;50.956;3.106;2024-02-28T10:28:35;4.63;;;4.22;;
17917;SDS011;9084;50.956;3.106;2024-02-28T10:31:09;5.63;;;4.70;;
17917;SDS011;9084;50.956;3.106;2024-02-28T10:33:35;5.00;;;4.55;;
17917;SDS011;9084;50.956;3.106;2024-02-28T10:36:04;6.63;;;5.35;;
17917;SDS011;9084;50.956;3.106;2024-02-28T10:38:31;5.57;;;5.07;;
17917;SDS011;9084;50.956;3.106;2024-02-28T10:41:01;5.85;;;4.78;;
17917;SDS011;9084;50.956;3.106;2024-02-28T10:43:29;6.22;;;4.57;;
17917;SDS011;9084;50.956;3.106;2024-02-28T10:45:58;6.40;;;4.70;;
17917;SDS011;9084;50.956;3.106;2024-02-28T10:48:27;6.57;;;4.85;;
17917;SDS011;9084;50.956;3.106;2024-02-28T10:50:53;5.00;;;4.60;;
17917;SDS011;9084;50.956;3.106;2024-02-28T10:53:24;5.47;;;4.78;;
17917;SDS011;9084;50.956;3.106;2024-02-28T10:56:14;6.90;;;5.30;;
17917;SDS011;9084;50.956;3.106;2024-02-28T10:58:49;6.10;;;4.43;;
17917;SDS011;9084;50.956;3.106;2024-02-28T11:01:17;6.20;;;5.03;;
17917;SDS011;9084;50.956;3.106;2024-02-28T11:03:44;8.45;;;4.97;;
17917;SDS011;9084;50.956;3.106;2024-02-28T11:06:19;6.35;;;4.60;;
17917;SDS011;9084;50.956;3.106;2024-02-28T11:08:46;9.52;;;4.38;;
17917;SDS011;9084;50.956;3.106;2024-02-28T11:11:16;5.55;;;4.75;;
17917;SDS011;9084;50.956;3.106;2024-02-28T11:13:51;5.22;;;4.72;;
17917;SDS011;9084;50.956;3.106;2024-02-28T11:16:27;6.03;;;5.13;;
17917;SDS011;9084;50.956;3.106;2024-02-28T11:18:59;5.75;;;4.60;;
17917;SDS011;9084;50.956;3.106;2024-02-28T11:21:26;5.47;;;4.57;;
17917;SDS011;9084;50.956;3.106;2024-02-28T11:24:02;5.18;;;3.85;;
17917;SDS011;9084;50.956;3.106;2024-02-28T11:26:28;3.83;;;3.53;;
17917;SDS011;9084;50.956;3.106;2024-02-28T11:28:54;6.25;;;3.83;;
17917;SDS011;9084;50.956;3.106;2024-02-28T11:31:20;6.03;;;3.25;;
17917;SDS011;9084;50.956;3.106;2024-02-28T11:33:46;4.28;;;3.88;;
17917;SDS011;9084;50.956;3.106;2024-02-28T11:36:12;3.70;;;2.80;;
17917;SDS011;9084;50.956;3.106;2024-02-28T11:38:40;3.30;;;2.97;;
17917;SDS011;9084;50.956;3.106;2024-02-28T11:41:06;3.42;;;3.13;;
17917;SDS011;9084;50.956;3.106;2024-02-28T11:43:32;2.72;;;2.40;;
17917;SDS011;9084;50.956;3.106;2024-02-28T11:46:02;2.53;;;2.33;;
17917;SDS011;9084;50.956;3.106;2024-02-28T11:48:33;3.33;;;2.67;;
17917;SDS011;9084;50.956;3.106;2024-02-28T11:50:59;4.75;;;2.40;;
17917;SDS011;9084;50.956;3.106;2024-02-28T11:53:25;4.00;;;2.60;;
17917;SDS011;9084;50.956;3.106;2024-02-28T11:55:53;3.25;;;2.40;;
17917;SDS011;9084;50.956;3.106;2024-02-28T11:58:22;3.95;;;2.40;;
17917;SDS011;9084;50.956;3.106;2024-02-28T12:00:51;4.93;;;2.38;;
17917;SDS011;9084;50.956;3.106;2024-02-28T12:03:23;2.35;;;1.90;;
17917;SDS011;9084;50.956;3.106;2024-02-28T12:05:51;4.15;;;1.80;;
17917;SDS011;9084;50.956;3.106;2024-02-28T12:08:19;1.92;;;1.60;;
17917;SDS011;9084;50.956;3.106;2024-02-28T12:10:45;3.75;;;2.15;;
17917;SDS011;9084;50.956;3.106;2024-02-28T12:13:17;1.88;;;1.38;;
17917;SDS011;9084;50.956;3.106;2024-02-28T12:15:43;2.85;;;1.80;;
17917;SDS011;9084;50.956;3.106;2024-02-28T12:18:14;2.22;;;1.60;;
17917;SDS011;9084;50.956;3.106;2024-02-28T12:20:40;3.42;;;1.75;;
17917;SDS011;9084;50.956;3.106;2024-02-28T12:23:06;1.77;;;1.55;;
17917;SDS011;9084;50.956;3.106;2024-02-28T12:25:33;1.60;;;1.50;;
17917;SDS011;9084;50.956;3.106;2024-02-28T12:28:00;2.45;;;1.67;;
17917;SDS011;9084;50.956;3.106;2024-02-28T12:30:30;1.85;;;1.33;;
17917;SDS011;9084;50.956;3.106;2024-02-28T12:32:56;3.17;;;1.73;;
17917;SDS011;9084;50.956;3.106;2024-02-28T12:35:21;2.00;;;1.80;;
17917;SDS011;9084;50.956;3.106;2024-02-28T12:37:47;3.20;;;1.60;;
17917;SDS011;9084;50.956;3.106;2024-02-28T12:40:13;2.97;;;1.42;;
17917;SDS011;9084;50.956;3.106;2024-02-28T12:42:40;3.13;;;1.40;;
17917;SDS011;9084;50.956;3.106;2024-02-28T12:45:08;1.55;;;1.35;;
17917;SDS011;9084;50.956;3.106;2024-02-28T12:47:36;3.03;;;1.55;;
17917;SDS011;9084;50.956;3.106;2024-02-28T12:50:02;2.05;;;1.38;;
17917;SDS011;9084;50.956;3.106;2024-02-28T12:52:28;1.25;;;1.15;;
17917;SDS011;9084;50.956;3.106;2024-02-28T12:54:56;1.20;;;1.10;;
17917;SDS011;9084;50.956;3.106;2024-02-28T12:57:24;2.17;;;1.15;;
17917;SDS011;9084;50.956;3.106;2024-02-28T12:59:50;1.65;;;1.10;;
17917;SDS011;9084;50.956;3.106;2024-02-28T13:02:15;1.02;;;0.80;;
17917;SDS011;9084;50.956;3.106;2024-02-28T13:04:44;1.10;;;1.00;;
17917;SDS011;9084;50.956;3.106;2024-02-28T13:07:10;1.35;;;1.10;;
17917;SDS011;9084;50.956;3.106;2024-02-28T13:09:36;1.10;;;1.00;;
17917;SDS011;9084;50.956;3.106;2024-02-28T13:12:03;1.67;;;1.02;;
17917;SDS011;9084;50.956;3.106;2024-02-28T13:14:34;1.25;;;1.00;;
17917;SDS011;9084;50.956;3.106;2024-02-28T13:17:02;1.13;;;0.65;;
17917;SDS011;9084;50.956;3.106;2024-02-28T13:19:33;1.13;;;1.00;;
17917;SDS011;9084;50.956;3.106;2024-02-28T13:21:58;1.48;;;0.90;;
17917;SDS011;9084;50.956;3.106;2024-02-28T13:24:26;1.73;;;0.90;;
17917;SDS011;9084;50.956;3.106;2024-02-28T13:26:52;1.20;;;0.68;;
17917;SDS011;9084;50.956;3.106;2024-02-28T13:29:17;1.30;;;0.90;;
17917;SDS011;9084;50.956;3.106;2024-02-28T13:31:43;1.15;;;1.05;;
17917;SDS011;9084;50.956;3.106;2024-02-28T13:34:09;1.85;;;1.13;;
17917;SDS011;9084;50.956;3.106;2024-02-28T13:36:37;1.08;;;0.70;;
17917;SDS011;9084;50.956;3.106;2024-02-28T13:39:07;1.17;;;0.93;;
17917;SDS011;9084;50.956;3.106;2024-02-28T13:41:34;1.48;;;1.05;;
17917;SDS011;9084;50.956;3.106;2024-02-28T13:44:04;1.25;;;0.85;;
17917;SDS011;9084;50.956;3.106;2024-02-28T13:46:30;1.02;;;0.80;;
17917;SDS011;9084;50.956;3.106;2024-02-28T13:48:59;0.95;;;0.85;;
17917;SDS011;9084;50.956;3.106;2024-02-28T13:51:25;2.08;;;0.93;;
17917;SDS011;9084;50.956;3.106;2024-02-28T13:53:51;0.95;;;0.80;;
17917;SDS011;9084;50.956;3.106;2024-02-28T13:56:19;1.42;;;0.80;;
17917;SDS011;9084;50.956;3.106;2024-02-28T13:58:47;1.63;;;0.85;;
17917;SDS011;9084;50.956;3.106;2024-02-28T14:01:13;1.50;;;0.90;;
17917;SDS011;9084;50.956;3.106;2024-02-28T14:03:38;1.25;;;0.80;;
17917;SDS011;9084;50.956;3.106;2024-02-28T14:06:04;1.02;;;0.80;;
17917;SDS011;9084;50.956;3.106;2024-02-28T14:08:30;0.85;;;0.65;;
17917;SDS011;9084;50.956;3.106;2024-02-28T14:10:58;0.88;;;0.63;;
17917;SDS011;9084;50.956;3.106;2024-02-28T14:13:23;0.65;;;0.47;;
17917;SDS011;9084;50.956;3.106;2024-02-28T14:15:52;0.80;;;0.73;;
17917;SDS011;9084;50.956;3.106;2024-02-28T14:18:20;0.90;;;0.50;;
17917;SDS011;9084;50.956;3.106;2024-02-28T14:20:47;0.75;;;0.70;;
17917;SDS011;9084;50.956;3.106;2024-02-28T14:23:13;0.93;;;0.82;;
17917;SDS011;9084;50.956;3.106;2024-02-28T14:25:41;0.80;;;0.80;;
17917;SDS011;9084;50.956;3.106;2024-02-28T14:28:08;0.95;;;0.80;;
17917;SDS011;9084;50.956;3.106;2024-02-28T14:30:34;1.88;;;0.70;;
17917;SDS011;9084;50.956;3.106;2024-02-28T14:33:00;0.75;;;0.70;;
17917;SDS011;9084;50.956;3.106;2024-02-28T14:35:28;0.80;;;0.80;;
17917;SDS011;9084;50.956;3.106;2024-02-28T14:37:53;1.15;;;0.88;;
17917;SDS011;9084;50.956;3.106;2024-02-28T14:40:23;0.90;;;0.90;;
17917;SDS011;9084;50.956;3.106;2024-02-28T14:42:51;0.98;;;0.90;;
17917;SDS011;9084;50.956;3.106;2024-02-28T14:45:16;1.02;;;0.93;;
17917;SDS011;9084;50.956;3.106;2024-02-28T14:47:44;1.25;;;1.13;;
17917;SDS011;9084;50.956;3.106;2024-02-28T14:50:12;1.23;;;1.10;;
17917;SDS011;9084;50.956;3.106;2024-02-28T14:52:38;1.42;;;0.90;;
17917;SDS011;9084;50.956;3.106;2024-02-28T14:57:35;1.90;;;1.55;;
17917;SDS011;9084;50.956;3.106;2024-02-28T15:00:02;1.60;;;1.50;;
17917;SDS011;9084;50.956;3.106;2024-02-28T15:02:33;3.67;;;2.10;;
17917;SDS011;9084;50.956;3.106;2024-02-28T15:05:01;2.60;;;2.10;;